McLain, Mississippi
Current Conditions -  °F | °C
As of 4:53 AM on Sunday 23 Nov 2014 (Local Time) from KHBG Reporting Station
Haze Haze  
Wind Chill: 60°   Ceiling: 300
Heat Index: 60°   Visibility: 2.5mi
Dew Point: 59°   Wind: 6mph
Humidity: 96%   Direction: 90°E
Pressure: 29.78"   Gusts: NA
Location:  31.11°N, 88.83°W
Report Text: KHBG 231053Z AUTO 09005KT 2 1/2SM BR OVC003 16/15 A2978 RMK AO2 RAB35E49 CIG 002V006 SLP083 P0001 T01560150
Loading
Personal Weather Stations






























Interactive Weather Map New forecast layout! Learn more

10-Day Weather Forecast

Advertisements
Track Severe Weather on mobile